sensor_id;sensor_type;location;lat;lon;timestamp;P1;durP1;ratioP1;P2;durP2;ratioP2
17832;SDS011;9041;49.718;21.798;2023-02-16T00:00:45;51.73;;;18.20;;
17832;SDS011;9041;49.718;21.798;2023-02-16T00:03:13;50.50;;;18.23;;
17832;SDS011;9041;49.718;21.798;2023-02-16T00:05:40;46.03;;;17.57;;
17832;SDS011;9041;49.718;21.798;2023-02-16T00:08:07;54.03;;;17.97;;
17832;SDS011;9041;49.718;21.798;2023-02-16T00:10:35;45.53;;;17.40;;
17832;SDS011;9041;49.718;21.798;2023-02-16T00:13:11;53.50;;;19.47;;
17832;SDS011;9041;49.718;21.798;2023-02-16T00:16:02;52.23;;;18.17;;
17832;SDS011;9041;49.718;21.798;2023-02-16T00:18:29;41.40;;;16.23;;
17832;SDS011;9041;49.718;21.798;2023-02-16T00:20:56;51.93;;;16.80;;
17832;SDS011;9041;49.718;21.798;2023-02-16T00:23:23;55.07;;;19.60;;
17832;SDS011;9041;49.718;21.798;2023-02-16T00:25:49;47.30;;;18.00;;
17832;SDS011;9041;49.718;21.798;2023-02-16T00:28:18;49.33;;;17.97;;
17832;SDS011;9041;49.718;21.798;2023-02-16T00:30:46;46.27;;;17.87;;
17832;SDS011;9041;49.718;21.798;2023-02-16T00:33:14;45.53;;;17.40;;
17832;SDS011;9041;49.718;21.798;2023-02-16T00:35:41;55.67;;;18.83;;
17832;SDS011;9041;49.718;21.798;2023-02-16T00:38:08;51.67;;;18.50;;
17832;SDS011;9041;49.718;21.798;2023-02-16T00:40:35;55.87;;;19.47;;
17832;SDS011;9041;49.718;21.798;2023-02-16T00:43:02;49.50;;;19.20;;
17832;SDS011;9041;49.718;21.798;2023-02-16T00:45:31;59.37;;;21.67;;
17832;SDS011;9041;49.718;21.798;2023-02-16T00:47:59;55.63;;;19.60;;
17832;SDS011;9041;49.718;21.798;2023-02-16T00:50:26;58.27;;;20.97;;
17832;SDS011;9041;49.718;21.798;2023-02-16T00:52:53;61.33;;;19.33;;
17832;SDS011;9041;49.718;21.798;2023-02-16T00:55:41;54.03;;;19.77;;
17832;SDS011;9041;49.718;21.798;2023-02-16T00:58:11;49.20;;;18.93;;
17832;SDS011;9041;49.718;21.798;2023-02-16T01:00:42;56.87;;;20.20;;
17832;SDS011;9041;49.718;21.798;2023-02-16T01:03:11;61.27;;;18.97;;
17832;SDS011;9041;49.718;21.798;2023-02-16T01:05:39;48.63;;;18.33;;
17832;SDS011;9041;49.718;21.798;2023-02-16T01:08:08;57.37;;;20.73;;
17832;SDS011;9041;49.718;21.798;2023-02-16T01:10:52;48.43;;;19.07;;
17832;SDS011;9041;49.718;21.798;2023-02-16T01:13:35;56.83;;;19.93;;
17832;SDS011;9041;49.718;21.798;2023-02-16T01:16:11;50.20;;;18.50;;
17832;SDS011;9041;49.718;21.798;2023-02-16T01:18:41;53.40;;;20.23;;
17832;SDS011;9041;49.718;21.798;2023-02-16T01:21:08;51.80;;;18.23;;
17832;SDS011;9041;49.718;21.798;2023-02-16T01:23:35;54.90;;;18.97;;
17832;SDS011;9041;49.718;21.798;2023-02-16T01:26:02;50.37;;;19.40;;
17832;SDS011;9041;49.718;21.798;2023-02-16T01:28:29;52.47;;;18.27;;
17832;SDS011;9041;49.718;21.798;2023-02-16T01:30:59;52.33;;;18.57;;
17832;SDS011;9041;49.718;21.798;2023-02-16T01:33:27;52.03;;;19.30;;
17832;SDS011;9041;49.718;21.798;2023-02-16T01:35:54;57.53;;;19.30;;
17832;SDS011;9041;49.718;21.798;2023-02-16T01:38:22;48.93;;;17.67;;
17832;SDS011;9041;49.718;21.798;2023-02-16T01:40:51;42.10;;;18.07;;
17832;SDS011;9041;49.718;21.798;2023-02-16T01:43:26;48.40;;;17.67;;
17832;SDS011;9041;49.718;21.798;2023-02-16T01:45:58;56.47;;;19.03;;
17832;SDS011;9041;49.718;21.798;2023-02-16T01:48:31;49.07;;;19.17;;
17832;SDS011;9041;49.718;21.798;2023-02-16T01:51:00;47.80;;;17.97;;
17832;SDS011;9041;49.718;21.798;2023-02-16T01:53:31;45.50;;;16.90;;
17832;SDS011;9041;49.718;21.798;2023-02-16T01:56:01;49.13;;;17.17;;
17832;SDS011;9041;49.718;21.798;2023-02-16T01:58:32;46.07;;;18.63;;
17832;SDS011;9041;49.718;21.798;2023-02-16T02:04:08;42.70;;;17.07;;
17832;SDS011;9041;49.718;21.798;2023-02-16T02:06:55;45.93;;;17.80;;
17832;SDS011;9041;49.718;21.798;2023-02-16T02:09:24;49.07;;;17.70;;
17832;SDS011;9041;49.718;21.798;2023-02-16T02:11:54;46.10;;;18.23;;
17832;SDS011;9041;49.718;21.798;2023-02-16T02:14:23;49.97;;;18.87;;
17832;SDS011;9041;49.718;21.798;2023-02-16T02:16:53;50.33;;;18.30;;
17832;SDS011;9041;49.718;21.798;2023-02-16T02:19:22;47.20;;;18.03;;
17832;SDS011;9041;49.718;21.798;2023-02-16T02:21:57;45.57;;;17.87;;
17832;SDS011;9041;49.718;21.798;2023-02-16T02:25:02;49.57;;;18.77;;
17832;SDS011;9041;49.718;21.798;2023-02-16T02:27:45;45.37;;;16.07;;
17832;SDS011;9041;49.718;21.798;2023-02-16T02:30:23;44.97;;;16.67;;
17832;SDS011;9041;49.718;21.798;2023-02-16T02:35:44;43.83;;;16.57;;
17832;SDS011;9041;49.718;21.798;2023-02-16T02:38:15;45.07;;;16.90;;
17832;SDS011;9041;49.718;21.798;2023-02-16T02:40:47;47.07;;;17.83;;
17832;SDS011;9041;49.718;21.798;2023-02-16T02:43:21;47.00;;;16.90;;
17832;SDS011;9041;49.718;21.798;2023-02-16T02:46:00;44.07;;;16.57;;
17832;SDS011;9041;49.718;21.798;2023-02-16T02:48:29;40.13;;;15.53;;
17832;SDS011;9041;49.718;21.798;2023-02-16T02:50:56;43.80;;;16.23;;
17832;SDS011;9041;49.718;21.798;2023-02-16T02:53:42;48.43;;;17.27;;
17832;SDS011;9041;49.718;21.798;2023-02-16T02:56:11;43.23;;;16.33;;
17832;SDS011;9041;49.718;21.798;2023-02-16T02:58:58;36.93;;;15.60;;
17832;SDS011;9041;49.718;21.798;2023-02-16T03:01:46;42.67;;;15.97;;
17832;SDS011;9041;49.718;21.798;2023-02-16T03:04:15;41.93;;;16.63;;
17832;SDS011;9041;49.718;21.798;2023-02-16T03:06:47;45.07;;;16.23;;
17832;SDS011;9041;49.718;21.798;2023-02-16T03:09:15;43.93;;;18.00;;
17832;SDS011;9041;49.718;21.798;2023-02-16T03:11:43;49.17;;;17.03;;
17832;SDS011;9041;49.718;21.798;2023-02-16T03:14:31;49.30;;;16.97;;
17832;SDS011;9041;49.718;21.798;2023-02-16T03:16:59;42.90;;;15.97;;
17832;SDS011;9041;49.718;21.798;2023-02-16T03:19:45;45.13;;;16.47;;
17832;SDS011;9041;49.718;21.798;2023-02-16T03:22:30;45.67;;;16.30;;
17832;SDS011;9041;49.718;21.798;2023-02-16T03:25:15;43.43;;;15.13;;
17832;SDS011;9041;49.718;21.798;2023-02-16T03:28:00;44.70;;;16.50;;
17832;SDS011;9041;49.718;21.798;2023-02-16T03:30:47;49.03;;;17.67;;
17832;SDS011;9041;49.718;21.798;2023-02-16T03:33:16;53.37;;;17.00;;
17832;SDS011;9041;49.718;21.798;2023-02-16T03:35:42;48.13;;;18.17;;
17832;SDS011;9041;49.718;21.798;2023-02-16T03:38:10;54.13;;;17.80;;
17832;SDS011;9041;49.718;21.798;2023-02-16T03:40:37;54.80;;;19.77;;
17832;SDS011;9041;49.718;21.798;2023-02-16T03:43:06;55.33;;;19.33;;
17832;SDS011;9041;49.718;21.798;2023-02-16T03:45:34;57.37;;;19.83;;
17832;SDS011;9041;49.718;21.798;2023-02-16T03:48:05;63.27;;;21.43;;
17832;SDS011;9041;49.718;21.798;2023-02-16T03:50:32;61.43;;;20.27;;
17832;SDS011;9041;49.718;21.798;2023-02-16T03:52:59;57.93;;;20.73;;
17832;SDS011;9041;49.718;21.798;2023-02-16T03:55:31;53.03;;;19.77;;
17832;SDS011;9041;49.718;21.798;2023-02-16T03:58:04;56.17;;;20.07;;
17832;SDS011;9041;49.718;21.798;2023-02-16T04:00:32;59.07;;;19.17;;
17832;SDS011;9041;49.718;21.798;2023-02-16T04:02:59;54.83;;;19.10;;
17832;SDS011;9041;49.718;21.798;2023-02-16T04:05:27;55.23;;;19.57;;
17832;SDS011;9041;49.718;21.798;2023-02-16T04:07:54;57.70;;;19.57;;
17832;SDS011;9041;49.718;21.798;2023-02-16T04:10:21;54.50;;;20.13;;
17832;SDS011;9041;49.718;21.798;2023-02-16T04:12:48;58.77;;;20.50;;
17832;SDS011;9041;49.718;21.798;2023-02-16T04:15:15;53.97;;;18.70;;
17832;SDS011;9041;49.718;21.798;2023-02-16T04:17:42;56.97;;;17.90;;
17832;SDS011;9041;49.718;21.798;2023-02-16T04:20:10;51.93;;;18.63;;
17832;SDS011;9041;49.718;21.798;2023-02-16T04:22:39;56.80;;;18.40;;
17832;SDS011;9041;49.718;21.798;2023-02-16T04:25:06;55.20;;;18.83;;
17832;SDS011;9041;49.718;21.798;2023-02-16T04:27:34;54.60;;;19.57;;
17832;SDS011;9041;49.718;21.798;2023-02-16T04:30:01;58.97;;;20.33;;
17832;SDS011;9041;49.718;21.798;2023-02-16T04:32:28;55.53;;;18.17;;
17832;SDS011;9041;49.718;21.798;2023-02-16T04:34:55;57.30;;;20.60;;
17832;SDS011;9041;49.718;21.798;2023-02-16T04:37:22;49.53;;;18.03;;
17832;SDS011;9041;49.718;21.798;2023-02-16T04:39:50;63.27;;;21.37;;
17832;SDS011;9041;49.718;21.798;2023-02-16T04:42:17;62.63;;;20.57;;
17832;SDS011;9041;49.718;21.798;2023-02-16T04:44:44;68.13;;;21.80;;
17832;SDS011;9041;49.718;21.798;2023-02-16T04:47:11;66.13;;;22.27;;
17832;SDS011;9041;49.718;21.798;2023-02-16T04:49:37;62.77;;;20.97;;
17832;SDS011;9041;49.718;21.798;2023-02-16T04:52:04;58.53;;;21.07;;
17832;SDS011;9041;49.718;21.798;2023-02-16T04:54:31;67.57;;;21.90;;
17832;SDS011;9041;49.718;21.798;2023-02-16T04:56:59;61.33;;;22.10;;
17832;SDS011;9041;49.718;21.798;2023-02-16T04:59:26;71.60;;;23.23;;
17832;SDS011;9041;49.718;21.798;2023-02-16T05:01:53;61.20;;;21.77;;
17832;SDS011;9041;49.718;21.798;2023-02-16T05:04:21;62.97;;;22.47;;
17832;SDS011;9041;49.718;21.798;2023-02-16T05:06:48;69.10;;;23.17;;
17832;SDS011;9041;49.718;21.798;2023-02-16T05:09:15;67.70;;;22.90;;
17832;SDS011;9041;49.718;21.798;2023-02-16T05:11:42;70.17;;;22.20;;
17832;SDS011;9041;49.718;21.798;2023-02-16T05:14:28;61.77;;;21.97;;
17832;SDS011;9041;49.718;21.798;2023-02-16T05:17:09;57.63;;;19.87;;
17832;SDS011;9041;49.718;21.798;2023-02-16T05:19:37;58.13;;;20.10;;
17832;SDS011;9041;49.718;21.798;2023-02-16T05:22:05;61.43;;;21.67;;
17832;SDS011;9041;49.718;21.798;2023-02-16T05:24:32;61.47;;;20.77;;
17832;SDS011;9041;49.718;21.798;2023-02-16T05:27:00;55.17;;;21.03;;
17832;SDS011;9041;49.718;21.798;2023-02-16T05:29:29;61.40;;;20.13;;
17832;SDS011;9041;49.718;21.798;2023-02-16T05:31:56;65.13;;;21.53;;
17832;SDS011;9041;49.718;21.798;2023-02-16T05:34:22;64.10;;;21.10;;
17832;SDS011;9041;49.718;21.798;2023-02-16T05:36:49;66.53;;;21.77;;
17832;SDS011;9041;49.718;21.798;2023-02-16T05:39:16;63.37;;;22.23;;
17832;SDS011;9041;49.718;21.798;2023-02-16T05:41:43;63.57;;;22.00;;
17832;SDS011;9041;49.718;21.798;2023-02-16T05:44:10;67.10;;;22.47;;
17832;SDS011;9041;49.718;21.798;2023-02-16T05:46:38;58.80;;;21.40;;
17832;SDS011;9041;49.718;21.798;2023-02-16T05:49:06;61.13;;;21.83;;
17832;SDS011;9041;49.718;21.798;2023-02-16T05:51:34;73.30;;;24.63;;
17832;SDS011;9041;49.718;21.798;2023-02-16T05:54:01;66.33;;;23.67;;
17832;SDS011;9041;49.718;21.798;2023-02-16T05:56:29;87.43;;;28.77;;
17832;SDS011;9041;49.718;21.798;2023-02-16T05:58:56;78.83;;;26.60;;
17832;SDS011;9041;49.718;21.798;2023-02-16T06:01:23;85.37;;;29.27;;
17832;SDS011;9041;49.718;21.798;2023-02-16T06:03:51;66.07;;;22.80;;
17832;SDS011;9041;49.718;21.798;2023-02-16T06:06:18;78.27;;;25.93;;
17832;SDS011;9041;49.718;21.798;2023-02-16T06:08:46;73.77;;;24.57;;
17832;SDS011;9041;49.718;21.798;2023-02-16T06:11:13;76.30;;;28.23;;
17832;SDS011;9041;49.718;21.798;2023-02-16T06:13:53;74.90;;;27.00;;
17832;SDS011;9041;49.718;21.798;2023-02-16T06:16:23;71.67;;;25.97;;
17832;SDS011;9041;49.718;21.798;2023-02-16T06:18:52;76.03;;;25.30;;
17832;SDS011;9041;49.718;21.798;2023-02-16T06:21:18;74.83;;;24.47;;
17832;SDS011;9041;49.718;21.798;2023-02-16T06:23:45;66.07;;;22.77;;
17832;SDS011;9041;49.718;21.798;2023-02-16T06:26:13;64.73;;;23.80;;
17832;SDS011;9041;49.718;21.798;2023-02-16T06:28:41;70.10;;;23.10;;
17832;SDS011;9041;49.718;21.798;2023-02-16T06:31:07;63.07;;;23.50;;
17832;SDS011;9041;49.718;21.798;2023-02-16T06:33:34;65.43;;;23.33;;
17832;SDS011;9041;49.718;21.798;2023-02-16T06:36:03;61.43;;;22.57;;
17832;SDS011;9041;49.718;21.798;2023-02-16T06:38:31;66.50;;;23.27;;
17832;SDS011;9041;49.718;21.798;2023-02-16T06:40:57;67.73;;;22.43;;
17832;SDS011;9041;49.718;21.798;2023-02-16T06:43:24;66.47;;;24.20;;
17832;SDS011;9041;49.718;21.798;2023-02-16T06:45:51;73.23;;;23.03;;
17832;SDS011;9041;49.718;21.798;2023-02-16T06:48:18;66.70;;;22.63;;
17832;SDS011;9041;49.718;21.798;2023-02-16T06:50:45;59.03;;;22.50;;
17832;SDS011;9041;49.718;21.798;2023-02-16T06:53:13;60.43;;;21.37;;
17832;SDS011;9041;49.718;21.798;2023-02-16T06:55:40;58.87;;;20.33;;
17832;SDS011;9041;49.718;21.798;2023-02-16T06:58:06;56.27;;;21.37;;
17832;SDS011;9041;49.718;21.798;2023-02-16T07:00:33;57.20;;;21.80;;
17832;SDS011;9041;49.718;21.798;2023-02-16T07:03:00;64.20;;;21.70;;
17832;SDS011;9041;49.718;21.798;2023-02-16T07:05:27;59.67;;;22.23;;
17832;SDS011;9041;49.718;21.798;2023-02-16T07:07:54;67.60;;;24.37;;
17832;SDS011;9041;49.718;21.798;2023-02-16T07:10:22;66.70;;;24.10;;
17832;SDS011;9041;49.718;21.798;2023-02-16T07:12:49;62.23;;;21.57;;
17832;SDS011;9041;49.718;21.798;2023-02-16T07:15:16;79.17;;;25.67;;
17832;SDS011;9041;49.718;21.798;2023-02-16T07:17:42;65.00;;;23.07;;
17832;SDS011;9041;49.718;21.798;2023-02-16T07:20:09;63.27;;;23.73;;
17832;SDS011;9041;49.718;21.798;2023-02-16T07:22:37;69.20;;;22.33;;
17832;SDS011;9041;49.718;21.798;2023-02-16T07:25:04;67.87;;;23.17;;
17832;SDS011;9041;49.718;21.798;2023-02-16T07:27:33;58.00;;;21.80;;
17832;SDS011;9041;49.718;21.798;2023-02-16T07:29:59;63.50;;;22.17;;
17832;SDS011;9041;49.718;21.798;2023-02-16T07:32:27;65.33;;;20.83;;
17832;SDS011;9041;49.718;21.798;2023-02-16T07:34:55;65.00;;;22.67;;
17832;SDS011;9041;49.718;21.798;2023-02-16T07:37:22;59.47;;;22.07;;
17832;SDS011;9041;49.718;21.798;2023-02-16T07:39:48;67.93;;;23.87;;
17832;SDS011;9041;49.718;21.798;2023-02-16T07:42:17;62.70;;;21.73;;
17832;SDS011;9041;49.718;21.798;2023-02-16T07:44:45;81.33;;;26.90;;
17832;SDS011;9041;49.718;21.798;2023-02-16T07:47:11;58.37;;;21.50;;
17832;SDS011;9041;49.718;21.798;2023-02-16T07:49:38;66.80;;;21.87;;
17832;SDS011;9041;49.718;21.798;2023-02-16T07:52:07;66.37;;;22.80;;
17832;SDS011;9041;49.718;21.798;2023-02-16T07:54:34;60.70;;;21.97;;
17832;SDS011;9041;49.718;21.798;2023-02-16T07:57:02;64.67;;;22.93;;
17832;SDS011;9041;49.718;21.798;2023-02-16T07:59:29;63.80;;;24.97;;
17832;SDS011;9041;49.718;21.798;2023-02-16T08:01:56;56.57;;;21.27;;
17832;SDS011;9041;49.718;21.798;2023-02-16T08:04:23;70.13;;;23.63;;
17832;SDS011;9041;49.718;21.798;2023-02-16T08:06:50;72.00;;;22.33;;
17832;SDS011;9041;49.718;21.798;2023-02-16T08:09:17;66.77;;;23.33;;
17832;SDS011;9041;49.718;21.798;2023-02-16T08:11:43;64.40;;;24.27;;
17832;SDS011;9041;49.718;21.798;2023-02-16T08:14:10;60.37;;;22.07;;
17832;SDS011;9041;49.718;21.798;2023-02-16T08:16:37;60.00;;;23.00;;
17832;SDS011;9041;49.718;21.798;2023-02-16T08:19:05;63.13;;;21.90;;
17832;SDS011;9041;49.718;21.798;2023-02-16T08:21:34;66.70;;;23.73;;
17832;SDS011;9041;49.718;21.798;2023-02-16T08:24:02;67.73;;;22.90;;
17832;SDS011;9041;49.718;21.798;2023-02-16T08:26:32;65.97;;;22.80;;
17832;SDS011;9041;49.718;21.798;2023-02-16T08:29:00;66.47;;;24.17;;
17832;SDS011;9041;49.718;21.798;2023-02-16T08:31:28;65.93;;;23.40;;
17832;SDS011;9041;49.718;21.798;2023-02-16T08:33:57;60.43;;;21.83;;
17832;SDS011;9041;49.718;21.798;2023-02-16T08:36:28;65.30;;;22.20;;
17832;SDS011;9041;49.718;21.798;2023-02-16T08:38:57;58.80;;;21.43;;
17832;SDS011;9041;49.718;21.798;2023-02-16T08:41:29;61.33;;;21.83;;
17832;SDS011;9041;49.718;21.798;2023-02-16T08:43:57;66.40;;;23.73;;
17832;SDS011;9041;49.718;21.798;2023-02-16T08:46:25;70.53;;;23.23;;
17832;SDS011;9041;49.718;21.798;2023-02-16T08:48:53;73.73;;;26.03;;
17832;SDS011;9041;49.718;21.798;2023-02-16T08:51:20;63.50;;;22.53;;
17832;SDS011;9041;49.718;21.798;2023-02-16T08:53:49;61.17;;;23.37;;
17832;SDS011;9041;49.718;21.798;2023-02-16T08:56:16;63.50;;;23.60;;
17832;SDS011;9041;49.718;21.798;2023-02-16T08:58:44;67.90;;;24.17;;
17832;SDS011;9041;49.718;21.798;2023-02-16T09:01:11;58.60;;;21.50;;
17832;SDS011;9041;49.718;21.798;2023-02-16T09:03:39;59.07;;;21.40;;
17832;SDS011;9041;49.718;21.798;2023-02-16T09:06:07;58.53;;;21.70;;
17832;SDS011;9041;49.718;21.798;2023-02-16T09:08:36;62.53;;;22.97;;
17832;SDS011;9041;49.718;21.798;2023-02-16T09:11:05;69.10;;;22.17;;
17832;SDS011;9041;49.718;21.798;2023-02-16T09:13:33;67.63;;;22.63;;
17832;SDS011;9041;49.718;21.798;2023-02-16T09:16:03;71.13;;;22.17;;
17832;SDS011;9041;49.718;21.798;2023-02-16T09:18:31;56.90;;;21.30;;
17832;SDS011;9041;49.718;21.798;2023-02-16T09:20:57;53.07;;;21.43;;
17832;SDS011;9041;49.718;21.798;2023-02-16T09:23:28;64.70;;;22.33;;
17832;SDS011;9041;49.718;21.798;2023-02-16T09:25:56;66.30;;;21.73;;
17832;SDS011;9041;49.718;21.798;2023-02-16T09:28:27;65.40;;;23.03;;
17832;SDS011;9041;49.718;21.798;2023-02-16T09:30:54;60.87;;;22.00;;
17832;SDS011;9041;49.718;21.798;2023-02-16T09:33:21;61.10;;;22.13;;
17832;SDS011;9041;49.718;21.798;2023-02-16T09:35:48;61.30;;;22.83;;
17832;SDS011;9041;49.718;21.798;2023-02-16T09:38:16;58.53;;;22.33;;
17832;SDS011;9041;49.718;21.798;2023-02-16T09:40:43;56.00;;;22.83;;
17832;SDS011;9041;49.718;21.798;2023-02-16T09:43:13;59.73;;;22.67;;
17832;SDS011;9041;49.718;21.798;2023-02-16T09:45:46;60.17;;;22.53;;
17832;SDS011;9041;49.718;21.798;2023-02-16T09:48:20;61.33;;;22.43;;
17832;SDS011;9041;49.718;21.798;2023-02-16T09:50:50;57.37;;;22.03;;
17832;SDS011;9041;49.718;21.798;2023-02-16T09:53:19;65.63;;;24.20;;
17832;SDS011;9041;49.718;21.798;2023-02-16T09:55:49;61.93;;;22.97;;
17832;SDS011;9041;49.718;21.798;2023-02-16T09:58:22;63.37;;;24.10;;
17832;SDS011;9041;49.718;21.798;2023-02-16T10:00:54;62.67;;;23.77;;
17832;SDS011;9041;49.718;21.798;2023-02-16T10:03:34;63.53;;;23.83;;
17832;SDS011;9041;49.718;21.798;2023-02-16T10:06:14;62.10;;;24.43;;
17832;SDS011;9041;49.718;21.798;2023-02-16T10:08:50;60.60;;;22.70;;
17832;SDS011;9041;49.718;21.798;2023-02-16T10:11:21;53.90;;;20.70;;
17832;SDS011;9041;49.718;21.798;2023-02-16T10:14:05;59.90;;;23.20;;
17832;SDS011;9041;49.718;21.798;2023-02-16T10:16:36;60.90;;;22.50;;
17832;SDS011;9041;49.718;21.798;2023-02-16T10:19:08;59.37;;;22.40;;
17832;SDS011;9041;49.718;21.798;2023-02-16T10:21:43;62.40;;;23.23;;
17832;SDS011;9041;49.718;21.798;2023-02-16T10:24:22;60.70;;;22.67;;
17832;SDS011;9041;49.718;21.798;2023-02-16T10:26:51;54.37;;;21.77;;
17832;SDS011;9041;49.718;21.798;2023-02-16T10:29:20;58.37;;;21.43;;
17832;SDS011;9041;49.718;21.798;2023-02-16T10:31:50;56.87;;;22.53;;
17832;SDS011;9041;49.718;21.798;2023-02-16T10:34:31;57.47;;;22.60;;
17832;SDS011;9041;49.718;21.798;2023-02-16T10:37:18;62.70;;;23.13;;
17832;SDS011;9041;49.718;21.798;2023-02-16T10:39:56;59.87;;;22.70;;
17832;SDS011;9041;49.718;21.798;2023-02-16T10:42:32;58.40;;;22.17;;
17832;SDS011;9041;49.718;21.798;2023-02-16T10:45:13;56.73;;;22.03;;
17832;SDS011;9041;49.718;21.798;2023-02-16T10:47:46;54.80;;;21.63;;
17832;SDS011;9041;49.718;21.798;2023-02-16T10:50:16;62.03;;;22.70;;
17832;SDS011;9041;49.718;21.798;2023-02-16T10:52:47;63.77;;;22.83;;
17832;SDS011;9041;49.718;21.798;2023-02-16T10:55:15;57.67;;;22.27;;
17832;SDS011;9041;49.718;21.798;2023-02-16T10:57:42;54.70;;;22.47;;
17832;SDS011;9041;49.718;21.798;2023-02-16T11:00:10;61.03;;;23.17;;
17832;SDS011;9041;49.718;21.798;2023-02-16T11:02:41;61.83;;;23.93;;
17832;SDS011;9041;49.718;21.798;2023-02-16T11:08:20;56.57;;;22.37;;
17832;SDS011;9041;49.718;21.798;2023-02-16T11:10:50;51.40;;;21.67;;
17832;SDS011;9041;49.718;21.798;2023-02-16T11:13:28;53.87;;;22.90;;
17832;SDS011;9041;49.718;21.798;2023-02-16T11:15:56;57.77;;;22.93;;
17832;SDS011;9041;49.718;21.798;2023-02-16T11:18:29;59.77;;;22.77;;
17832;SDS011;9041;49.718;21.798;2023-02-16T11:21:06;63.23;;;23.43;;
17832;SDS011;9041;49.718;21.798;2023-02-16T11:23:35;55.27;;;21.63;;
17832;SDS011;9041;49.718;21.798;2023-02-16T11:26:03;61.10;;;23.57;;
17832;SDS011;9041;49.718;21.798;2023-02-16T11:28:32;56.67;;;23.00;;
17832;SDS011;9041;49.718;21.798;2023-02-16T11:31:14;62.33;;;23.23;;
17832;SDS011;9041;49.718;21.798;2023-02-16T11:33:53;53.43;;;21.43;;
17832;SDS011;9041;49.718;21.798;2023-02-16T11:36:23;58.77;;;23.20;;
17832;SDS011;9041;49.718;21.798;2023-02-16T11:38:57;56.70;;;22.57;;
17832;SDS011;9041;49.718;21.798;2023-02-16T11:41:26;54.03;;;22.77;;
17832;SDS011;9041;49.718;21.798;2023-02-16T11:43:53;54.40;;;22.77;;
17832;SDS011;9041;49.718;21.798;2023-02-16T11:46:20;61.10;;;23.03;;
17832;SDS011;9041;49.718;21.798;2023-02-16T11:48:48;58.73;;;22.87;;
17832;SDS011;9041;49.718;21.798;2023-02-16T11:51:27;58.13;;;23.00;;
17832;SDS011;9041;49.718;21.798;2023-02-16T11:54:04;57.57;;;22.53;;
17832;SDS011;9041;49.718;21.798;2023-02-16T11:56:32;54.77;;;21.87;;
17832;SDS011;9041;49.718;21.798;2023-02-16T11:59:07;58.13;;;22.00;;
17832;SDS011;9041;49.718;21.798;2023-02-16T12:01:52;58.10;;;22.73;;
17832;SDS011;9041;49.718;21.798;2023-02-16T12:04:29;63.63;;;24.53;;
17832;SDS011;9041;49.718;21.798;2023-02-16T12:07:06;52.47;;;21.53;;
17832;SDS011;9041;49.718;21.798;2023-02-16T12:09:42;60.13;;;22.03;;
17832;SDS011;9041;49.718;21.798;2023-02-16T12:12:15;55.00;;;20.73;;
17832;SDS011;9041;49.718;21.798;2023-02-16T12:14:49;59.97;;;23.37;;
17832;SDS011;9041;49.718;21.798;2023-02-16T12:17:25;59.77;;;21.83;;
17832;SDS011;9041;49.718;21.798;2023-02-16T12:19:59;58.17;;;22.30;;
17832;SDS011;9041;49.718;21.798;2023-02-16T12:22:32;55.83;;;22.50;;
17832;SDS011;9041;49.718;21.798;2023-02-16T12:25:23;56.23;;;22.23;;
17832;SDS011;9041;49.718;21.798;2023-02-16T12:27:54;62.80;;;23.37;;
17832;SDS011;9041;49.718;21.798;2023-02-16T12:30:32;58.80;;;22.73;;
17832;SDS011;9041;49.718;21.798;2023-02-16T12:33:07;62.23;;;22.97;;
17832;SDS011;9041;49.718;21.798;2023-02-16T12:35:49;59.77;;;23.17;;
17832;SDS011;9041;49.718;21.798;2023-02-16T12:38:25;66.00;;;25.10;;
17832;SDS011;9041;49.718;21.798;2023-02-16T12:41:04;61.00;;;23.90;;
17832;SDS011;9041;49.718;21.798;2023-02-16T12:43:34;60.17;;;20.67;;
17832;SDS011;9041;49.718;21.798;2023-02-16T12:46:04;62.40;;;23.33;;
17832;SDS011;9041;49.718;21.798;2023-02-16T12:48:38;60.50;;;22.93;;
17832;SDS011;9041;49.718;21.798;2023-02-16T12:51:10;63.53;;;23.20;;
17832;SDS011;9041;49.718;21.798;2023-02-16T12:53:42;65.60;;;24.20;;
17832;SDS011;9041;49.718;21.798;2023-02-16T12:56:15;58.80;;;22.33;;
17832;SDS011;9041;49.718;21.798;2023-02-16T12:58:44;62.07;;;22.80;;
17832;SDS011;9041;49.718;21.798;2023-02-16T13:01:15;59.10;;;22.47;;
17832;SDS011;9041;49.718;21.798;2023-02-16T13:03:48;70.87;;;24.50;;
17832;SDS011;9041;49.718;21.798;2023-02-16T13:06:19;70.40;;;24.63;;
17832;SDS011;9041;49.718;21.798;2023-02-16T13:08:56;66.20;;;23.43;;
17832;SDS011;9041;49.718;21.798;2023-02-16T13:11:31;64.57;;;24.27;;
17832;SDS011;9041;49.718;21.798;2023-02-16T13:14:00;62.33;;;23.50;;
17832;SDS011;9041;49.718;21.798;2023-02-16T13:16:32;64.77;;;24.93;;
17832;SDS011;9041;49.718;21.798;2023-02-16T13:19:04;65.63;;;23.87;;
17832;SDS011;9041;49.718;21.798;2023-02-16T13:21:38;68.27;;;25.03;;
17832;SDS011;9041;49.718;21.798;2023-02-16T13:24:12;58.43;;;24.27;;
17832;SDS011;9041;49.718;21.798;2023-02-16T13:26:51;62.03;;;24.40;;
17832;SDS011;9041;49.718;21.798;2023-02-16T13:32:24;69.90;;;24.63;;
17832;SDS011;9041;49.718;21.798;2023-02-16T13:35:14;66.33;;;23.83;;
17832;SDS011;9041;49.718;21.798;2023-02-16T13:37:56;67.37;;;24.30;;
17832;SDS011;9041;49.718;21.798;2023-02-16T13:40:36;64.07;;;24.70;;
17832;SDS011;9041;49.718;21.798;2023-02-16T13:43:14;71.33;;;24.90;;
17832;SDS011;9041;49.718;21.798;2023-02-16T13:45:47;61.00;;;23.03;;
17832;SDS011;9041;49.718;21.798;2023-02-16T13:48:20;69.47;;;26.10;;
17832;SDS011;9041;49.718;21.798;2023-02-16T13:50:53;64.83;;;24.90;;
17832;SDS011;9041;49.718;21.798;2023-02-16T13:53:21;66.83;;;24.90;;
17832;SDS011;9041;49.718;21.798;2023-02-16T13:55:49;72.03;;;26.80;;
17832;SDS011;9041;49.718;21.798;2023-02-16T13:59:45;71.17;;;25.40;;
17832;SDS011;9041;49.718;21.798;2023-02-16T14:05:21;68.67;;;25.17;;
17832;SDS011;9041;49.718;21.798;2023-02-16T14:08:10;68.70;;;23.17;;
17832;SDS011;9041;49.718;21.798;2023-02-16T14:11:00;63.77;;;23.63;;
17832;SDS011;9041;49.718;21.798;2023-02-16T14:13:51;65.50;;;24.17;;
17832;SDS011;9041;49.718;21.798;2023-02-16T14:19:15;66.00;;;23.40;;
17832;SDS011;9041;49.718;21.798;2023-02-16T14:21:44;66.67;;;25.60;;
17832;SDS011;9041;49.718;21.798;2023-02-16T14:24:24;71.53;;;26.93;;
17832;SDS011;9041;49.718;21.798;2023-02-16T14:26:54;64.57;;;25.33;;
17832;SDS011;9041;49.718;21.798;2023-02-16T14:29:27;68.93;;;25.47;;
17832;SDS011;9041;49.718;21.798;2023-02-16T14:31:57;77.23;;;26.30;;
17832;SDS011;9041;49.718;21.798;2023-02-16T14:34:27;64.60;;;24.33;;
17832;SDS011;9041;49.718;21.798;2023-02-16T14:37:09;115.63;;;38.20;;
17832;SDS011;9041;49.718;21.798;2023-02-16T14:39:51;80.13;;;30.13;;
17832;SDS011;9041;49.718;21.798;2023-02-16T14:42:20;68.87;;;27.03;;
17832;SDS011;9041;49.718;21.798;2023-02-16T14:44:59;83.60;;;34.90;;
17832;SDS011;9041;49.718;21.798;2023-02-16T14:47:44;67.70;;;25.30;;
17832;SDS011;9041;49.718;21.798;2023-02-16T14:50:25;68.03;;;27.80;;
17832;SDS011;9041;49.718;21.798;2023-02-16T14:56:19;73.33;;;27.97;;
17832;SDS011;9041;49.718;21.798;2023-02-16T14:58:53;67.70;;;26.03;;
17832;SDS011;9041;49.718;21.798;2023-02-16T15:01:23;73.50;;;29.40;;
17832;SDS011;9041;49.718;21.798;2023-02-16T15:03:50;67.13;;;24.57;;
17832;SDS011;9041;49.718;21.798;2023-02-16T15:06:20;72.70;;;27.33;;